Time;durP1;ratioP1;P1;durP2;ratioP2;P2;SDS_P1;SDS_P2;PMS_P1;PMS_P2;Temp;Humidity;BMP_temperature;BMP_pressure;BME280_temperature;BME280_humidity;BME280_pressure;Samples;Min_cycle;Max_cycle;Signal;HPM_P1;HPM_P2
2021/08/08 00:01:50;;;;;;;;;;;21.70;73.60;;;;;;5053077;28;1084;-67
2021/08/08 00:04:16;;;;;;;;;;;21.60;73.50;;;;;;5052660;28;1335;-67
2021/08/08 00:06:41;;;;;;;;;;;21.60;73.40;;;;;;5053424;28;894;-67
2021/08/08 00:09:07;;;;;;;;;;;21.60;73.20;;;;;;5053150;28;1120;-67
2021/08/08 00:11:32;;;;;;;;;;;21.60;73.20;;;;;;5053100;28;1136;-67
2021/08/08 00:13:58;;;;;;;;;;;21.60;73.10;;;;;;5052697;28;1193;-67
2021/08/08 00:16:25;;;;;;;;;;;21.70;73.20;;;;;;5052826;28;1206;-67
2021/08/08 00:18:50;;;;;;;;;;;21.60;73.10;;;;;;5052893;28;1973;-67
2021/08/08 00:21:17;;;;;;;;;;;21.60;73.10;;;;;;5053002;28;1112;-67
2021/08/08 00:23:42;;;;;;;;;;;21.60;73.00;;;;;;5052888;28;1272;-67
2021/08/08 00:26:07;;;;;;;;;;;21.60;73.50;;;;;;5052647;28;1100;-67
2021/08/08 00:28:33;;;;;;;;;;;21.60;72.70;;;;;;5052289;28;1187;-67
2021/08/08 00:30:58;;;;;;;;;;;21.60;72.70;;;;;;5046477;28;1128;-67
2021/08/08 00:33:24;;;;;;;;;;;21.60;72.60;;;;;;5052659;28;1233;-67
2021/08/08 00:35:50;;;;;;;;;;;21.60;72.70;;;;;;5051342;28;1119;-67
2021/08/08 00:38:15;;;;;;;;;;;21.60;72.60;;;;;;5052810;28;2416;-67
2021/08/08 00:40:43;;;;;;;;;;;21.60;72.50;;;;;;5052754;28;839;-67
2021/08/08 00:43:09;;;;;;;;;;;21.60;72.50;;;;;;5052546;28;1422;-67
2021/08/08 00:45:35;;;;;;;;;;;21.60;72.40;;;;;;5052282;28;1072;-67
2021/08/08 00:48:00;;;;;;;;;;;21.60;72.40;;;;;;5048810;28;1096;-67
2021/08/08 00:50:26;;;;;;;;;;;21.60;72.30;;;;;;5044075;28;1178;-67
2021/08/08 00:52:51;;;;;;;;;;;21.60;72.40;;;;;;5054185;28;1248;-67
2021/08/08 00:55:17;;;;;;;;;;;21.60;72.30;;;;;;5056822;28;1123;-67
2021/08/08 00:57:42;;;;;;;;;;;21.60;72.30;;;;;;5056258;28;1048;-67
2021/08/08 01:00:08;;;;;;;;;;;21.60;72.10;;;;;;5056121;28;1971;-67
2021/08/08 01:02:34;;;;;;;;;;;21.60;72.00;;;;;;5056665;28;1264;-67
2021/08/08 01:05:02;;;;;;;;;;;21.60;72.00;;;;;;5056063;28;1159;-67
2021/08/08 01:07:28;;;;;;;;;;;21.60;71.80;;;;;;5048645;28;1318;-67
2021/08/08 01:09:53;;;;;;;;;;;21.60;72.50;;;;;;5027609;28;1240;-67
2021/08/08 01:12:19;;;;;;;;;;;21.60;72.60;;;;;;5049040;28;1357;-67
2021/08/08 01:14:45;;;;;;;;;;;21.60;71.90;;;;;;5032409;28;1295;-68
2021/08/08 01:17:10;;;;;;;;;;;21.60;71.90;;;;;;5034385;28;1344;-67
2021/08/08 01:19:37;;;;;;;;;;;21.60;71.90;;;;;;5047025;28;1938;-68
2021/08/08 01:22:03;;;;;;;;;;;21.60;71.90;;;;;;5031040;28;1293;-67
2021/08/08 01:24:29;;;;;;;;;;;21.60;71.90;;;;;;5028917;28;1324;-68
2021/08/08 01:26:54;;;;;;;;;;;21.50;71.80;;;;;;5050341;28;1438;-68
2021/08/08 01:29:19;;;;;;;;;;;21.60;71.90;;;;;;5027885;28;1375;-68
2021/08/08 01:31:49;;;;;;;;;;;21.60;71.70;;;;;;5048344;28;1332;-67
2021/08/08 01:34:14;;;;;;;;;;;21.60;71.60;;;;;;5046391;28;1379;-68
2021/08/08 01:36:40;;;;;;;;;;;21.60;71.70;;;;;;5048207;28;1367;-69
2021/08/08 01:39:08;;;;;;;;;;;21.60;71.70;;;;;;5047416;28;2020;-68
2021/08/08 01:41:42;;;;;;;;;;;21.60;71.70;;;;;;5030234;28;1419;-67
2021/08/08 01:44:07;;;;;;;;;;;21.60;71.60;;;;;;5048261;28;1315;-68
2021/08/08 01:46:32;;;;;;;;;;;21.50;71.60;;;;;;5033177;28;1355;-68
2021/08/08 01:48:58;;;;;;;;;;;21.50;71.50;;;;;;5049843;28;1442;-68
2021/08/08 01:51:24;;;;;;;;;;;21.60;71.60;;;;;;5047501;28;1259;-68
2021/08/08 01:53:50;;;;;;;;;;;21.50;71.60;;;;;;5045780;28;1406;-67
2021/08/08 01:56:15;;;;;;;;;;;21.50;71.60;;;;;;5036236;28;1262;-67
2021/08/08 01:58:41;;;;;;;;;;;21.50;71.70;;;;;;5055582;28;1955;-67
2021/08/08 02:01:06;;;;;;;;;;;21.50;71.60;;;;;;5037723;28;1171;-68
2021/08/08 02:03:35;;;;;;;;;;;21.50;71.70;;;;;;5055696;28;1264;-68
2021/08/08 02:06:01;;;;;;;;;;;21.50;71.60;;;;;;5054284;28;1128;-69
2021/08/08 02:08:26;;;;;;;;;;;21.50;71.60;;;;;;5055634;28;1092;-69
2021/08/08 02:10:52;;;;;;;;;;;21.50;71.60;;;;;;5037277;28;1123;-68
2021/08/08 02:13:17;;;;;;;;;;;21.50;71.50;;;;;;5055219;28;1314;-68
2021/08/08 02:15:42;;;;;;;;;;;21.50;71.50;;;;;;5054923;28;1140;-67
2021/08/08 02:18:08;;;;;;;;;;;21.50;71.40;;;;;;5055290;28;1135;-68
2021/08/08 02:20:33;;;;;;;;;;;21.50;71.40;;;;;;5055069;28;1902;-67
2021/08/08 02:22:59;;;;;;;;;;;21.50;71.40;;;;;;5048601;28;1295;-68
2021/08/08 02:25:24;;;;;;;;;;;21.50;71.40;;;;;;5046953;28;1139;-69
2021/08/08 02:27:50;;;;;;;;;;;21.50;71.40;;;;;;5047156;28;1249;-68
2021/08/08 02:30:15;;;;;;;;;;;21.50;71.20;;;;;;5048425;28;1283;-68
2021/08/08 02:32:40;;;;;;;;;;;21.50;71.40;;;;;;5045556;28;1345;-67
2021/08/08 02:35:06;;;;;;;;;;;21.50;71.20;;;;;;5047291;28;1282;-67
2021/08/08 02:37:31;;;;;;;;;;;21.50;71.20;;;;;;5054839;28;1204;-67
2021/08/08 02:39:57;;;;;;;;;;;21.50;71.10;;;;;;5054698;28;1906;-67
2021/08/08 02:42:22;;;;;;;;;;;21.50;71.10;;;;;;5054858;28;1360;-69
2021/08/08 02:44:48;;;;;;;;;;;21.50;71.10;;;;;;5054595;28;1097;-68
2021/08/08 02:47:13;;;;;;;;;;;21.50;71.00;;;;;;5055140;28;1076;-68
2021/08/08 02:49:39;;;;;;;;;;;21.50;71.00;;;;;;5055447;28;1119;-67
2021/08/08 02:52:04;;;;;;;;;;;21.50;71.10;;;;;;5054926;28;1056;-67
2021/08/08 02:54:29;;;;;;;;;;;21.50;71.10;;;;;;5054489;28;1264;-67
2021/08/08 02:56:55;;;;;;;;;;;21.50;71.00;;;;;;5036782;28;1123;-68
2021/08/08 02:59:20;;;;;;;;;;;21.50;70.90;;;;;;5054389;28;1906;-68
2021/08/08 03:01:46;;;;;;;;;;;21.50;70.90;;;;;;5054488;28;1116;-68
2021/08/08 03:04:11;;;;;;;;;;;21.50;70.80;;;;;;5054133;28;1249;-68
2021/08/08 03:06:37;;;;;;;;;;;21.50;70.90;;;;;;5054444;28;1095;-68
2021/08/08 03:09:02;;;;;;;;;;;21.50;70.90;;;;;;5054761;28;1072;-68
2021/08/08 03:11:27;;;;;;;;;;;21.50;70.90;;;;;;5036409;28;1092;-68
2021/08/08 03:13:53;;;;;;;;;;;21.50;70.80;;;;;;5054182;28;1290;-68
2021/08/08 03:16:18;;;;;;;;;;;21.50;70.80;;;;;;5054028;28;1127;-68
2021/08/08 03:18:44;;;;;;;;;;;21.50;70.80;;;;;;5054111;28;1910;-68
2021/08/08 03:21:09;;;;;;;;;;;21.50;70.80;;;;;;5054147;28;1076;-68
2021/08/08 03:23:35;;;;;;;;;;;21.50;70.80;;;;;;5054090;28;1272;-68
2021/08/08 03:26:01;;;;;;;;;;;21.40;70.70;;;;;;5053451;28;1028;-68
2021/08/08 03:28:26;;;;;;;;;;;21.40;70.60;;;;;;5054012;28;1104;-68
2021/08/08 03:30:52;;;;;;;;;;;21.50;70.80;;;;;;5053992;28;1103;-67
2021/08/08 03:33:17;;;;;;;;;;;21.40;70.80;;;;;;5053799;28;1267;-67
2021/08/08 03:35:42;;;;;;;;;;;21.50;70.80;;;;;;5052408;28;1266;-67
2021/08/08 03:38:08;;;;;;;;;;;21.50;70.70;;;;;;5053737;28;1119;-68
2021/08/08 03:40:34;;;;;;;;;;;21.40;70.50;;;;;;5053586;28;1914;-67
2021/08/08 03:43:00;;;;;;;;;;;21.40;70.40;;;;;;5053659;28;1263;-67
2021/08/08 03:45:25;;;;;;;;;;;21.40;70.40;;;;;;5035658;28;1056;-67
2021/08/08 03:47:50;;;;;;;;;;;21.40;70.40;;;;;;5035757;28;1076;-67
2021/08/08 03:50:16;;;;;;;;;;;21.40;70.40;;;;;;5053642;28;1080;-66
2021/08/08 03:52:41;;;;;;;;;;;21.40;70.40;;;;;;5053255;28;1250;-67
2021/08/08 03:55:07;;;;;;;;;;;21.40;70.50;;;;;;5053022;28;1139;-67
2021/08/08 03:57:32;;;;;;;;;;;21.40;70.60;;;;;;5053309;28;1159;-67
2021/08/08 03:59:58;;;;;;;;;;;21.40;70.60;;;;;;5053365;28;1894;-67
2021/08/08 04:02:23;;;;;;;;;;;21.40;70.60;;;;;;5053192;28;1369;-68
2021/08/08 04:04:49;;;;;;;;;;;21.40;70.60;;;;;;5053222;28;1068;-67
2021/08/08 04:07:14;;;;;;;;;;;21.40;70.50;;;;;;5053383;28;1096;-67
2021/08/08 04:09:40;;;;;;;;;;;21.40;70.50;;;;;;5053268;28;1119;-67
2021/08/08 04:12:06;;;;;;;;;;;21.40;70.40;;;;;;5035239;28;1307;-67
2021/08/08 04:14:32;;;;;;;;;;;21.40;70.30;;;;;;5051464;28;1267;-67
2021/08/08 04:16:57;;;;;;;;;;;21.40;70.30;;;;;;5035279;28;1072;-67
2021/08/08 04:19:23;;;;;;;;;;;21.40;70.30;;;;;;5053083;28;2045;-67
2021/08/08 04:21:48;;;;;;;;;;;21.40;70.40;;;;;;5052817;28;1056;-67
2021/08/08 04:24:13;;;;;;;;;;;21.40;70.40;;;;;;5052616;28;1210;-67
2021/08/08 04:26:39;;;;;;;;;;;21.40;70.50;;;;;;5052983;28;1115;-68
2021/08/08 04:29:04;;;;;;;;;;;21.40;70.40;;;;;;5052612;28;1076;-68
2021/08/08 04:31:30;;;;;;;;;;;21.40;70.20;;;;;;5035143;28;1191;-67
2021/08/08 04:33:55;;;;;;;;;;;21.40;70.20;;;;;;5052781;28;1273;-68
2021/08/08 04:36:21;;;;;;;;;;;21.40;70.20;;;;;;5052533;28;1060;-67
2021/08/08 04:38:46;;;;;;;;;;;21.40;70.20;;;;;;5052664;28;1910;-68
2021/08/08 04:41:11;;;;;;;;;;;21.40;70.20;;;;;;5052840;28;1065;-67
2021/08/08 04:43:37;;;;;;;;;;;21.40;70.10;;;;;;5052853;28;1282;-67
2021/08/08 04:46:02;;;;;;;;;;;21.40;70.20;;;;;;5052359;28;1081;-68
2021/08/08 04:48:28;;;;;;;;;;;21.40;70.10;;;;;;5052941;28;1088;-68
2021/08/08 04:50:53;;;;;;;;;;;21.40;70.00;;;;;;5035304;28;1108;-68
2021/08/08 04:53:19;;;;;;;;;;;21.40;70.10;;;;;;5053234;28;1588;-67
2021/08/08 04:55:44;;;;;;;;;;;21.30;70.00;;;;;;5052902;28;1175;-67
2021/08/08 04:58:10;;;;;;;;;;;21.40;70.00;;;;;;5052693;28;1080;-67
2021/08/08 05:00:35;;;;;;;;;;;21.30;69.90;;;;;;5052574;28;1894;-68
2021/08/08 05:03:02;;;;;;;;;;;21.40;70.00;;;;;;5018057;28;1266;-67
2021/08/08 05:05:27;;;;;;;;;;;21.40;70.00;;;;;;5034716;28;1167;-67
2021/08/08 05:07:53;;;;;;;;;;;21.30;69.80;;;;;;5052411;28;1084;-68
2021/08/08 05:10:18;;;;;;;;;;;21.40;69.90;;;;;;5052433;28;1112;-68
2021/08/08 05:12:44;;;;;;;;;;;21.30;69.70;;;;;;5052385;28;1196;-68
2021/08/08 05:15:09;;;;;;;;;;;21.30;69.90;;;;;;5052265;28;1144;-68
2021/08/08 05:17:35;;;;;;;;;;;21.30;69.70;;;;;;5034910;28;1096;-68
2021/08/08 05:20:01;;;;;;;;;;;21.30;69.80;;;;;;5034548;28;1918;-68
2021/08/08 05:22:26;;;;;;;;;;;21.30;69.60;;;;;;5052211;28;1343;-68
2021/08/08 05:24:53;;;;;;;;;;;21.30;69.60;;;;;;5051996;28;1069;-68
2021/08/08 05:27:18;;;;;;;;;;;21.30;69.60;;;;;;5034892;28;1254;-68
2021/08/08 05:29:44;;;;;;;;;;;21.30;69.70;;;;;;5052359;28;1123;-68
2021/08/08 05:32:09;;;;;;;;;;;21.30;69.70;;;;;;5052259;28;1080;-67
2021/08/08 05:34:35;;;;;;;;;;;21.30;69.70;;;;;;5051858;28;1539;-68
2021/08/08 05:37:00;;;;;;;;;;;21.30;69.80;;;;;;5052658;28;1120;-67
2021/08/08 05:39:25;;;;;;;;;;;21.30;69.80;;;;;;5052067;28;1898;-67
2021/08/08 05:41:51;;;;;;;;;;;21.30;69.80;;;;;;5055954;28;1065;-67
2021/08/08 05:44:16;;;;;;;;;;;21.30;69.90;;;;;;5055811;28;1242;-68
2021/08/08 05:46:42;;;;;;;;;;;21.30;69.80;;;;;;5055873;28;1140;-68
2021/08/08 05:49:08;;;;;;;;;;;21.30;70.00;;;;;;5056022;28;1127;-68
2021/08/08 05:51:36;;;;;;;;;;;21.30;70.20;;;;;;5055593;28;1049;-68
2021/08/08 05:54:01;;;;;;;;;;;21.30;70.50;;;;;;5051253;28;1729;-66
2021/08/08 05:56:26;;;;;;;;;;;21.30;70.40;;;;;;5048999;28;2337;-69
2021/08/08 05:58:52;;;;;;;;;;;21.30;70.20;;;;;;5054451;28;1934;-70
2021/08/08 06:01:17;;;;;;;;;;;21.30;70.40;;;;;;5055374;28;1191;-68
2021/08/08 06:03:43;;;;;;;;;;;21.30;70.80;;;;;;5055515;28;1265;-69
2021/08/08 06:06:09;;;;;;;;;;;21.30;70.30;;;;;;5055155;28;1139;-69
2021/08/08 06:08:34;;;;;;;;;;;21.40;70.50;;;;;;5055486;28;1131;-69
2021/08/08 06:11:00;;;;;;;;;;;21.30;70.30;;;;;;5055291;28;1107;-69
2021/08/08 06:13:25;;;;;;;;;;;21.40;70.50;;;;;;5055240;28;1340;-68
2021/08/08 06:15:51;;;;;;;;;;;21.30;71.00;;;;;;5054984;28;1151;-69
2021/08/08 06:18:16;;;;;;;;;;;21.30;70.70;;;;;;5055364;28;1064;-67
2021/08/08 06:20:41;;;;;;;;;;;21.40;70.50;;;;;;5055084;28;1975;-69
2021/08/08 06:23:07;;;;;;;;;;;21.40;71.20;;;;;;5054958;28;1353;-69
2021/08/08 06:25:32;;;;;;;;;;;21.40;70.40;;;;;;5054820;28;1156;-69
2021/08/08 06:27:58;;;;;;;;;;;21.40;70.40;;;;;;5055197;28;1057;-69
2021/08/08 06:30:23;;;;;;;;;;;21.40;70.60;;;;;;5055098;28;1219;-72
2021/08/08 06:32:49;;;;;;;;;;;21.40;70.60;;;;;;5054965;28;1197;-70
2021/08/08 06:35:14;;;;;;;;;;;21.40;70.60;;;;;;5054514;28;1159;-68
2021/08/08 06:37:43;;;;;;;;;;;21.40;70.80;;;;;;5054464;28;1065;-68
2021/08/08 06:40:09;;;;;;;;;;;21.40;70.80;;;;;;5054840;28;1965;-68
2021/08/08 06:42:35;;;;;;;;;;;21.40;70.90;;;;;;5036971;28;1204;-68
2021/08/08 06:45:00;;;;;;;;;;;21.40;70.80;;;;;;5054558;28;1112;-67
2021/08/08 06:47:26;;;;;;;;;;;21.40;70.90;;;;;;5054796;28;1069;-67
2021/08/08 06:49:51;;;;;;;;;;;21.40;70.90;;;;;;5054774;28;1096;-66
2021/08/08 06:52:17;;;;;;;;;;;21.40;70.90;;;;;;5054827;28;1140;-66
2021/08/08 06:54:42;;;;;;;;;;;21.40;70.90;;;;;;5054380;28;1231;-66
2021/08/08 06:57:07;;;;;;;;;;;21.40;70.90;;;;;;5054936;28;1080;-66
2021/08/08 06:59:37;;;;;;;;;;;21.40;71.00;;;;;;5054245;28;2258;-65
2021/08/08 07:02:02;;;;;;;;;;;21.40;71.00;;;;;;5054486;28;1089;-68
2021/08/08 07:04:28;;;;;;;;;;;21.40;71.20;;;;;;5054004;28;1255;-68
2021/08/08 07:06:53;;;;;;;;;;;21.40;70.90;;;;;;5053267;28;1993;-69
2021/08/08 07:09:19;;;;;;;;;;;21.40;70.90;;;;;;5054584;28;1592;-67
2021/08/08 07:11:44;;;;;;;;;;;21.40;70.90;;;;;;5054333;28;1244;-69
2021/08/08 07:14:09;;;;;;;;;;;21.40;70.90;;;;;;5076409;22;3702;-72
2021/08/08 07:16:35;;;;;;;;;;;21.40;71.10;;;;;;5072380;28;1378;-73
2021/08/08 07:19:00;;;;;;;;;;;21.40;70.90;;;;;;5074330;28;1967;-73
2021/08/08 07:21:26;;;;;;;;;;;21.40;70.90;;;;;;5069768;28;1366;-72
2021/08/08 07:23:51;;;;;;;;;;;21.40;71.00;;;;;;5068873;28;1559;-73
2021/08/08 07:26:17;;;;;;;;;;;21.40;71.00;;;;;;5057618;28;1377;-73
2021/08/08 07:28:42;;;;;;;;;;;21.40;71.10;;;;;;5039909;28;1619;-73
2021/08/08 07:31:07;;;;;;;;;;;21.40;71.00;;;;;;5057432;28;1380;-72
2021/08/08 07:33:33;;;;;;;;;;;21.40;70.90;;;;;;5063467;28;1751;-72
2021/08/08 07:35:58;;;;;;;;;;;21.40;70.80;;;;;;5041813;28;1379;-72
2021/08/08 07:38:24;;;;;;;;;;;21.40;70.80;;;;;;5034067;28;1718;-72
2021/08/08 07:40:49;;;;;;;;;;;21.40;70.80;;;;;;5034235;28;1894;-72
2021/08/08 07:43:15;;;;;;;;;;;21.40;70.80;;;;;;5032675;28;1673;-72
2021/08/08 07:45:40;;;;;;;;;;;21.40;70.60;;;;;;5033824;28;1687;-72
2021/08/08 07:48:05;;;;;;;;;;;21.40;70.70;;;;;;5033874;28;1693;-71
2021/08/08 07:50:31;;;;;;;;;;;21.40;70.70;;;;;;5033777;28;1392;-74
2021/08/08 07:52:56;;;;;;;;;;;21.40;70.70;;;;;;5044420;28;1416;-72
2021/08/08 07:55:23;;;;;;;;;;;21.40;70.60;;;;;;5032378;28;1451;-70
2021/08/08 07:57:49;;;;;;;;;;;21.40;70.40;;;;;;5032599;28;1308;-70
2021/08/08 08:00:14;;;;;;;;;;;21.40;70.30;;;;;;5044652;28;1890;-72
2021/08/08 08:02:40;;;;;;;;;;;21.40;70.30;;;;;;5035724;28;1250;-70
2021/08/08 08:05:05;;;;;;;;;;;21.40;70.60;;;;;;5033140;28;1692;-70
2021/08/08 08:07:31;;;;;;;;;;;21.40;70.40;;;;;;5033820;28;1427;-70
2021/08/08 08:09:56;;;;;;;;;;;21.40;70.00;;;;;;5033662;28;1639;-72
2021/08/08 08:12:21;;;;;;;;;;;21.40;70.00;;;;;;5033445;28;1229;-70
2021/08/08 08:14:47;;;;;;;;;;;21.40;69.90;;;;;;5033001;28;1366;-70
2021/08/08 08:17:12;;;;;;;;;;;21.40;70.10;;;;;;5036009;28;2088;-71
2021/08/08 08:19:38;;;;;;;;;;;21.40;70.10;;;;;;5052265;28;1906;-71
2021/08/08 08:22:03;;;;;;;;;;;21.40;70.20;;;;;;5056929;28;1478;-71
2021/08/08 08:24:29;;;;;;;;;;;21.40;70.10;;;;;;5033223;28;1685;-71
2021/08/08 08:26:54;;;;;;;;;;;21.40;69.90;;;;;;5040370;28;1956;-71
2021/08/08 08:29:20;;;;;;;;;;;21.40;69.80;;;;;;5049742;28;1525;-71
2021/08/08 08:31:45;;;;;;;;;;;21.40;69.80;;;;;;5053471;28;1533;-71
2021/08/08 08:34:11;;;;;;;;;;;21.50;70.10;;;;;;5032775;28;1595;-71
2021/08/08 08:36:36;;;;;;;;;;;21.40;69.80;;;;;;5050128;28;1216;-71
2021/08/08 08:39:02;;;;;;;;;;;21.50;69.00;;;;;;5053180;28;1967;-71
2021/08/08 08:41:30;;;;;;;;;;;21.40;68.80;;;;;;5051927;28;1457;-71
2021/08/08 08:43:55;;;;;;;;;;;21.50;69.00;;;;;;5052971;28;1682;-71
2021/08/08 08:46:20;;;;;;;;;;;21.50;69.60;;;;;;5052442;28;1436;-71
2021/08/08 08:48:46;;;;;;;;;;;21.40;68.50;;;;;;5051490;28;1181;-72
2021/08/08 08:51:13;;;;;;;;;;;21.40;68.40;;;;;;5051041;28;1538;-72
2021/08/08 08:53:38;;;;;;;;;;;21.50;68.50;;;;;;5031734;28;1735;-72
2021/08/08 08:56:03;;;;;;;;;;;21.50;68.20;;;;;;5041866;28;2053;-72
2021/08/08 08:58:30;;;;;;;;;;;21.50;68.30;;;;;;5057652;28;1643;-72
2021/08/08 09:00:55;;;;;;;;;;;21.40;68.60;;;;;;5051426;28;2002;-73
2021/08/08 09:03:21;;;;;;;;;;;21.40;68.70;;;;;;5060264;28;1568;-72
2021/08/08 09:05:47;;;;;;;;;;;21.40;68.80;;;;;;5038452;28;1360;-72
2021/08/08 09:08:12;;;;;;;;;;;21.40;68.90;;;;;;5032872;28;870;-72
2021/08/08 09:10:39;;;;;;;;;;;21.50;69.00;;;;;;5031626;28;1630;-72
2021/08/08 09:13:05;;;;;;;;;;;21.50;69.00;;;;;;5031508;28;1404;-70
2021/08/08 09:15:34;;;;;;;;;;;21.40;69.30;;;;;;5034829;28;1816;-70
2021/08/08 09:18:15;;;;;;;;;;;21.40;69.10;;;;;;5035359;28;1419;-70
2021/08/08 09:20:41;;;;;;;;;;;21.50;69.10;;;;;;5036755;28;1906;-70
2021/08/08 09:23:06;;;;;;;;;;;21.50;68.50;;;;;;5035386;28;1707;-70
2021/08/08 09:25:32;;;;;;;;;;;21.50;68.70;;;;;;5035015;28;1994;-69
2021/08/08 09:28:07;;;;;;;;;;;21.50;68.80;;;;;;5056161;28;1352;-70
2021/08/08 09:30:34;;;;;;;;;;;21.50;68.70;;;;;;5052850;28;1551;-70
2021/08/08 09:33:01;;;;;;;;;;;21.50;68.90;;;;;;5036390;28;1700;-70
2021/08/08 09:35:30;;;;;;;;;;;21.50;68.90;;;;;;5043444;28;1159;-70
2021/08/08 09:37:57;;;;;;;;;;;21.50;69.00;;;;;;5055158;28;1592;-70
2021/08/08 09:40:25;;;;;;;;;;;21.50;68.90;;;;;;5061652;28;1964;-70
2021/08/08 09:42:52;;;;;;;;;;;21.50;68.50;;;;;;5061378;28;1573;-70
2021/08/08 09:45:17;;;;;;;;;;;21.50;68.00;;;;;;5034792;28;1674;-72
2021/08/08 09:47:43;;;;;;;;;;;21.50;68.00;;;;;;5036315;28;1662;-71
2021/08/08 09:50:12;;;;;;;;;;;21.50;68.00;;;;;;5023190;28;1655;-71
2021/08/08 09:52:37;;;;;;;;;;;21.50;67.70;;;;;;5046593;28;1300;-71
2021/08/08 09:55:04;;;;;;;;;;;21.50;67.40;;;;;;5063269;28;1637;-71
2021/08/08 09:57:38;;;;;;;;;;;21.50;67.60;;;;;;5046625;28;1504;-72
2021/08/08 10:00:04;;;;;;;;;;;21.50;67.50;;;;;;5036109;28;1963;-72
2021/08/08 10:02:29;;;;;;;;;;;21.50;67.70;;;;;;5035830;28;1510;-71
2021/08/08 10:04:55;;;;;;;;;;;21.50;68.00;;;;;;5034285;28;1401;-72
2021/08/08 10:07:20;;;;;;;;;;;21.50;68.10;;;;;;5036089;28;1710;-72
2021/08/08 10:09:47;;;;;;;;;;;21.50;67.70;;;;;;5034617;28;1267;-71
2021/08/08 10:12:20;;;;;;;;;;;21.60;67.90;;;;;;5029942;28;1072;-72
2021/08/08 10:14:46;;;;;;;;;;;21.60;68.10;;;;;;5034141;28;1684;-72
2021/08/08 10:17:11;;;;;;;;;;;21.60;67.60;;;;;;5034425;28;1681;-71
2021/08/08 10:19:37;;;;;;;;;;;21.60;67.30;;;;;;5034357;28;1969;-71
2021/08/08 10:22:02;;;;;;;;;;;21.60;67.50;;;;;;5034358;28;1377;-72
2021/08/08 10:24:28;;;;;;;;;;;21.60;67.60;;;;;;5036507;28;1364;-73
2021/08/08 10:26:53;;;;;;;;;;;21.60;67.80;;;;;;5043547;28;1578;-73
2021/08/08 10:29:19;;;;;;;;;;;21.60;67.00;;;;;;5042547;28;1383;-73
2021/08/08 10:31:45;;;;;;;;;;;21.60;67.00;;;;;;5043669;28;1375;-72
2021/08/08 10:34:10;;;;;;;;;;;21.50;66.80;;;;;;5042230;28;1523;-75
2021/08/08 10:36:36;;;;;;;;;;;21.50;66.10;;;;;;5037694;28;1321;-74
2021/08/08 10:39:20;;;;;;;;;;;21.50;66.60;;;;;;5045042;28;1965;-75
2021/08/08 10:41:56;;;;;;;;;;;21.50;66.80;;;;;;5042835;28;1639;-71
2021/08/08 10:44:22;;;;;;;;;;;21.60;66.90;;;;;;5041940;28;1460;-73
2021/08/08 10:46:48;;;;;;;;;;;21.60;65.70;;;;;;5041157;28;1570;-72
2021/08/08 10:49:13;;;;;;;;;;;21.60;64.90;;;;;;5030481;28;1365;-72
2021/08/08 10:51:39;;;;;;;;;;;21.50;64.40;;;;;;5049063;28;1761;-72
2021/08/08 10:54:08;;;;;;;;;;;21.50;65.10;;;;;;5034425;28;1457;-73
2021/08/08 10:56:46;;;;;;;;;;;21.60;65.40;;;;;;5034947;28;1431;-73
2021/08/08 10:59:21;;;;;;;;;;;21.60;66.40;;;;;;5033377;28;1894;-73
2021/08/08 11:01:47;;;;;;;;;;;21.60;65.10;;;;;;5034957;28;1386;-72
2021/08/08 11:04:13;;;;;;;;;;;21.60;65.30;;;;;;5032303;28;1782;-72
2021/08/08 11:06:40;;;;;;;;;;;21.60;65.40;;;;;;5026998;28;1429;-72
2021/08/08 11:09:05;;;;;;;;;;;21.60;65.30;;;;;;5038544;28;1393;-72
2021/08/08 11:11:35;;;;;;;;;;;21.60;64.80;;;;;;5036572;28;1356;-73
2021/08/08 11:14:08;;;;;;;;;;;21.60;65.20;;;;;;5052512;28;1709;-73
2021/08/08 11:16:33;;;;;;;;;;;21.60;65.70;;;;;;5054595;28;1435;-72
2021/08/08 11:18:58;;;;;;;;;;;21.60;65.80;;;;;;5054195;28;1902;-72
2021/08/08 11:21:25;;;;;;;;;;;21.60;65.60;;;;;;5054509;28;1654;-72
2021/08/08 11:23:57;;;;;;;;;;;21.60;66.00;;;;;;5036477;28;1484;-73
2021/08/08 11:26:22;;;;;;;;;;;21.50;64.80;;;;;;5040508;28;1292;-73
2021/08/08 11:28:49;;;;;;;;;;;21.60;64.50;;;;;;5036823;28;1419;-70
2021/08/08 11:31:18;;;;;;;;;;;21.60;65.40;;;;;;5043577;28;1751;-72
2021/08/08 11:33:44;;;;;;;;;;;21.60;65.80;;;;;;5044538;28;1517;-73
2021/08/08 11:36:10;;;;;;;;;;;21.60;65.70;;;;;;5047527;28;1403;-73
2021/08/08 11:38:35;;;;;;;;;;;21.60;65.80;;;;;;5040859;28;1673;-73
2021/08/08 11:41:01;;;;;;;;;;;21.60;65.60;;;;;;5041933;28;1961;-73
2021/08/08 11:43:30;;;;;;;;;;;21.60;65.80;;;;;;5036817;28;1499;-74
2021/08/08 11:45:56;;;;;;;;;;;21.60;65.10;;;;;;5041137;28;1439;-74
2021/08/08 11:48:22;;;;;;;;;;;21.60;64.70;;;;;;5044603;28;1368;-73
2021/08/08 11:51:00;;;;;;;;;;;21.60;64.30;;;;;;5040929;28;1737;-74
2021/08/08 11:53:31;;;;;;;;;;;21.60;64.50;;;;;;5028849;28;1498;-73
2021/08/08 11:56:08;;;;;;;;;;;21.70;63.70;;;;;;5036836;28;1414;-72
2021/08/08 11:58:42;;;;;;;;;;;21.60;63.70;;;;;;5043482;28;1092;-73
2021/08/08 12:01:08;;;;;;;;;;;21.60;62.80;;;;;;5052543;28;1105;-73
2021/08/08 12:03:34;;;;;;;;;;;21.70;62.90;;;;;;5040731;28;1288;-73
2021/08/08 12:05:59;;;;;;;;;;;21.70;62.90;;;;;;5051505;28;1116;-73
2021/08/08 12:08:24;;;;;;;;;;;21.60;62.60;;;;;;5053142;28;1443;-73
2021/08/08 12:10:54;;;;;;;;;;;21.60;62.20;;;;;;5038445;28;1231;-73
2021/08/08 12:13:20;;;;;;;;;;;21.60;62.50;;;;;;5039847;28;1358;-73
2021/08/08 12:15:45;;;;;;;;;;;21.60;63.00;;;;;;5046637;28;1371;-73
2021/08/08 12:18:11;;;;;;;;;;;21.60;62.60;;;;;;5044938;28;891;-73
2021/08/08 12:20:37;;;;;;;;;;;21.60;62.70;;;;;;5038294;28;1914;-72
2021/08/08 12:23:07;;;;;;;;;;;21.70;62.80;;;;;;5051612;28;1586;-72
2021/08/08 12:25:32;;;;;;;;;;;21.70;63.10;;;;;;5052361;28;1390;-72
2021/08/08 12:27:57;;;;;;;;;;;21.70;63.00;;;;;;5043701;28;890;-72
2021/08/08 12:30:24;;;;;;;;;;;21.70;62.60;;;;;;5034310;28;1436;-73
2021/08/08 12:32:50;;;;;;;;;;;21.70;62.10;;;;;;5051183;28;2013;-74
2021/08/08 12:35:16;;;;;;;;;;;21.70;62.80;;;;;;5058647;28;1318;-74
2021/08/08 12:37:42;;;;;;;;;;;21.60;61.90;;;;;;5037617;28;2090;-74
2021/08/08 12:40:11;;;;;;;;;;;21.60;62.30;;;;;;5055528;28;1952;-71
2021/08/08 12:42:36;;;;;;;;;;;21.70;62.50;;;;;;5047117;28;1570;-71
2021/08/08 12:45:03;;;;;;;;;;;21.70;62.40;;;;;;5042193;28;1520;-71
2021/08/08 12:47:32;;;;;;;;;;;21.60;62.20;;;;;;5043855;28;1521;-74
2021/08/08 12:49:57;;;;;;;;;;;21.70;62.10;;;;;;5036381;28;1338;-73
2021/08/08 12:52:23;;;;;;;;;;;21.60;62.00;;;;;;5041626;28;1433;-73
2021/08/08 12:54:48;;;;;;;;;;;21.60;61.80;;;;;;5031189;28;1399;-72
2021/08/08 12:57:14;;;;;;;;;;;21.60;61.70;;;;;;5032421;28;1171;-72
2021/08/08 12:59:39;;;;;;;;;;;21.70;61.80;;;;;;5036003;28;1947;-72
2021/08/08 13:02:05;;;;;;;;;;;21.60;61.40;;;;;;5041278;28;1316;-72
2021/08/08 13:04:30;;;;;;;;;;;21.60;60.70;;;;;;5040414;28;1268;-73
2021/08/08 13:06:56;;;;;;;;;;;21.60;61.00;;;;;;5041511;28;1395;-73
2021/08/08 13:09:21;;;;;;;;;;;21.60;60.40;;;;;;5040493;28;1448;-73
2021/08/08 13:11:46;;;;;;;;;;;21.60;61.20;;;;;;5041706;28;1363;-72
2021/08/08 13:14:12;;;;;;;;;;;21.60;61.30;;;;;;5041757;28;1312;-73
2021/08/08 13:16:37;;;;;;;;;;;21.60;61.30;;;;;;5047885;28;1356;-73
2021/08/08 13:19:03;;;;;;;;;;;21.60;61.30;;;;;;5038038;28;1906;-72
2021/08/08 13:21:28;;;;;;;;;;;21.60;60.30;;;;;;5042824;28;1384;-73
2021/08/08 13:23:54;;;;;;;;;;;21.70;61.00;;;;;;5041089;28;1304;-74
2021/08/08 13:26:19;;;;;;;;;;;21.60;61.30;;;;;;5042201;28;1901;-74
2021/08/08 13:28:48;;;;;;;;;;;21.60;61.50;;;;;;5048540;28;1865;-73
2021/08/08 13:31:13;;;;;;;;;;;21.60;61.60;;;;;;5048178;28;1798;-74
2021/08/08 13:33:39;;;;;;;;;;;21.60;61.80;;;;;;5029276;28;1745;-73
2021/08/08 13:36:04;;;;;;;;;;;21.60;61.70;;;;;;5036771;28;1444;-74
2021/08/08 13:38:30;;;;;;;;;;;21.70;61.90;;;;;;5042896;28;1184;-73
2021/08/08 13:40:55;;;;;;;;;;;21.70;62.40;;;;;;5038865;28;1961;-73
2021/08/08 13:43:20;;;;;;;;;;;21.70;62.00;;;;;;5043769;28;1291;-73
2021/08/08 13:45:46;;;;;;;;;;;21.70;62.00;;;;;;5038029;28;1313;-73
2021/08/08 13:48:13;;;;;;;;;;;21.70;62.10;;;;;;5041141;28;1166;-72
2021/08/08 13:50:39;;;;;;;;;;;21.70;62.10;;;;;;5044567;28;1096;-72
2021/08/08 13:53:04;;;;;;;;;;;21.70;62.30;;;;;;5034481;28;1288;-73
2021/08/08 13:55:30;;;;;;;;;;;21.70;62.30;;;;;;5031926;28;1075;-73
2021/08/08 13:57:55;;;;;;;;;;;21.70;62.30;;;;;;5030480;28;1246;-73
2021/08/08 14:00:20;;;;;;;;;;;21.70;62.40;;;;;;5034732;28;1894;-72
2021/08/08 14:02:46;;;;;;;;;;;21.70;62.30;;;;;;5039372;28;1126;-73
2021/08/08 14:05:15;;;;;;;;;;;21.70;62.30;;;;;;5043444;28;1235;-73
2021/08/08 14:07:40;;;;;;;;;;;21.70;62.50;;;;;;5034090;28;1196;-73
2021/08/08 14:10:07;;;;;;;;;;;21.70;62.10;;;;;;5034640;28;1178;-73
2021/08/08 14:12:33;;;;;;;;;;;21.70;61.40;;;;;;5041530;28;1386;-73
2021/08/08 14:14:58;;;;;;;;;;;21.70;61.70;;;;;;5040664;28;1383;-73
2021/08/08 14:17:23;;;;;;;;;;;21.70;62.00;;;;;;5044339;28;1231;-73
2021/08/08 14:19:49;;;;;;;;;;;21.70;61.90;;;;;;5045369;28;1938;-73
2021/08/08 14:22:14;;;;;;;;;;;21.70;61.80;;;;;;5045856;28;1071;-73
2021/08/08 14:24:40;;;;;;;;;;;21.70;61.50;;;;;;5043023;28;1309;-73